Latest Weather Observations for Murganella Airstrip

IDD60801

Issued at 8:01 pm CST Thursday 3 September 2015 (issued every 30 minutes, with the page automatically refreshed every 10 minutes)

About weather observations | Map of weather stations | Latest weather observations for NT | Other Formats
Station Details ID: 014309 Name: MURGANELLA AIRSTRIP Lat: -11.55 Lon: 132.93 Height: 9.5 m
Data from the previous 72 hours. | See also: Recent months at Murganella Airstrip
Date/Time
CST
Temp
°C
App
Temp
°C
Dew
Point
Rel
Hum
%
Delta-T
°C
Wind Press
QNH
hPa
Press
MSL
hPa
Rain
since 9 am
mm
Dir
 
Spd
km/h
Gust
km/h
Spd
kts
Gust
kts
03/08:00pm 24.7 - - - - - - - - - 1015.4 - -
03/07:30pm 25.4 - - - - - - - - - 1015.0 1014.9 -
03/07:00pm 25.7 - - - - - - - - - 1014.6 - -
03/06:30pm 26.3 - - - - - - - - - 1014.2 1014.1 -
03/06:00pm 27.2 - - - - - - - - - 1013.9 1013.8 -
03/05:30pm 28.4 - - - - - - - - - 1013.7 1013.6 -
03/05:00pm 29.5 - - - - - - - - - 1013.5 - -
03/04:30pm 30.2 - - - - - - - - - 1013.4 1013.3 -
03/04:00pm 31.0 - - - - - - - - - 1013.5 - -
03/03:30pm 31.0 - - - - - - - - - 1013.6 1013.5 -
03/03:00pm 31.7 - - - - - - - - - 1013.7 1013.6 0.0
03/02:30pm 32.2 - - - - - - - - - 1013.9 1013.8 -
03/02:00pm 32.4 - - - - - - - - - 1014.1 - -
03/01:30pm 32.5 - - - - - - - - - 1014.4 1014.3 -
03/01:00pm 32.1 - - - - - - - - - 1014.8 - -
03/12:30pm 31.7 - - - - - - - - - 1015.4 1015.3 -
03/12:00pm 31.4 - - - - - - - - - 1015.7 1015.6 -
03/11:30am 31.2 - - - - - - - - - 1016.2 1016.1 -
03/11:00am 30.0 - - - - - - - - - 1016.7 - -
03/10:30am 27.9 - - - - - - - - - 1017.3 1017.2 -
03/10:00am 27.7 - - - - - - - - - 1017.4 - -
03/09:30am 27.2 - - - - - - - - - 1017.4 1017.3 -
03/09:00am 26.6 - - - - - - - - - 1017.4 1017.3 0.0
03/08:30am 25.6 - - - - - - - - - 1017.2 1017.1 -
03/08:00am 23.1 - - - - - - - - - 1016.9 - -
03/07:30am 19.5 - - - - - - - - - 1016.5 1016.4 -
03/07:00am 18.2 - - - - - - - - - 1016.3 - -
03/06:30am 18.1 - - - - - - - - - 1016.0 1015.9 -
03/06:00am 18.3 - - - - - - - - - 1015.7 1015.6 -
03/05:30am 18.7 - - - - - - - - - 1015.2 1015.1 -
03/05:00am 19.0 - - - - - - - - - 1014.9 - -
03/04:30am 19.2 - - - - - - - - - 1014.9 1014.8 -
03/04:00am 19.3 - - - - - - - - - 1014.9 - -
03/03:30am 19.4 - - - - - - - - - 1014.9 1014.8 -
03/03:00am 20.0 - - - - - - - - - 1015.0 1014.9 0.0
03/02:30am 20.1 - - - - - - - - - 1015.1 1015.0 -
03/02:00am 20.1 - - - - - - - - - 1015.3 - -
03/01:30am 19.6 - - - - - - - - - 1015.2 1015.1 -
03/01:00am 19.5 - - - - - - - - - 1015.1 - -
03/12:30am 19.9 - - - - - - - - - 1015.3 1015.2 -
03/12:00am 20.0 - - - - - - - - - 1015.3 1015.2 -
 
Date/Time
CST
Temp
°C
App
Temp
°C
Dew
Point
Rel
Hum
%
Delta-T
°C
Wind Press
QNH
hPa
Press
MSL
hPa
Rain
since 9 am
mm
Dir
 
Spd
km/h
Gust
km/h
Spd
kts
Gust
kts
02/11:30pm 20.3 - - - - - - - - - 1015.3 1015.2 -
02/11:00pm 20.5 - - - - - - - - - 1015.3 - -
02/10:30pm 20.6 - - - - - - - - - 1015.1 1015.0 -
02/10:00pm 20.8 - - - - - - - - - 1014.7 - -
02/09:30pm 21.3 - - - - - - - - - 1014.5 1014.4 -
02/09:00pm 21.8 - - - - - - - - - 1014.4 1014.3 0.0
02/08:30pm 22.5 - - - - - - - - - 1014.1 1014.0 -
02/08:00pm 23.4 - - - - - - - - - 1013.8 - -
02/07:30pm 24.6 - - - - - - - - - 1013.4 1013.3 -
02/07:00pm 25.7 - - - - - - - - - 1013.2 - -
02/06:30pm 26.6 - - - - - - - - - 1012.8 1012.7 -
02/06:00pm 27.8 - - - - - - - - - 1012.5 1012.4 -
02/05:30pm 28.6 - - - - - - - - - 1012.2 1012.1 -
02/05:00pm 30.1 - - - - - - - - - 1012.0 - -
02/04:30pm 30.6 - - - - - - - - - 1011.9 1011.8 -
02/04:00pm 30.6 - - - - - - - - - 1011.9 - -
02/03:30pm 31.4 - - - - - - - - - 1012.0 1011.9 -
02/03:00pm 31.1 - - - - - - - - - 1012.1 1012.0 0.0
02/02:30pm 31.8 - - - - - - - - - 1012.6 1012.5 -
02/02:00pm 31.5 - - - - - - - - - 1013.1 - -
02/01:30pm 32.7 - - - - - - - - - 1013.6 1013.5 -
02/01:00pm 30.6 - - - - - - - - - 1014.0 - -
02/12:30pm 32.6 - - - - - - - - - 1014.5 1014.4 -
02/12:00pm 32.3 - - - - - - - - - 1015.1 1015.0 -
02/11:30am 30.8 - - - - - - - - - 1015.8 1015.7 -
02/11:00am 30.8 - - - - - - - - - 1016.2 - -
02/10:30am 29.8 - - - - - - - - - 1016.4 1016.3 -
02/10:00am 29.2 - - - - - - - - - 1016.7 - -
02/09:30am 28.2 - - - - - - - - - 1016.6 1016.5 -
02/09:00am 26.7 - - - - - - - - - 1016.5 1016.4 0.0
02/08:30am 24.2 - - - - - - - - - 1016.2 1016.1 -
02/08:00am 21.0 - - - - - - - - - 1015.7 - -
02/07:30am 18.3 - - - - - - - - - 1015.4 1015.3 -
02/07:00am 16.8 - - - - - - - - - 1015.2 - -
02/06:30am 16.8 - - - - - - - - - 1014.8 1014.7 -
02/06:00am 17.1 - - - - - - - - - 1014.5 1014.4 -
02/05:30am 17.5 - - - - - - - - - 1014.1 1014.0 -
02/05:00am 17.5 - - - - - - - - - 1014.1 - -
02/04:30am 17.9 - - - - - - - - - 1014.1 1014.0 -
02/04:00am 18.3 - - - - - - - - - 1014.2 - -
02/03:30am 18.5 - - - - - - - - - 1014.1 1014.0 -
02/03:00am 18.6 - - - - - - - - - 1014.2 1014.1 0.0
02/02:30am 18.8 - - - - - - - - - 1014.4 1014.3 -
02/02:00am 19.0 - - - - - - - - - 1014.4 - -
02/01:30am 19.0 - - - - - - - - - 1014.3 1014.2 -
02/01:00am 19.7 - - - - - - - - - 1014.4 - -
02/12:30am 19.7 - - - - - - - - - 1014.3 1014.2 -
02/12:00am 19.8 - - - - - - - - - 1014.5 1014.4 -
 
Date/Time
CST
Temp
°C
App
Temp
°C
Dew
Point
Rel
Hum
%
Delta-T
°C
Wind Press
QNH
hPa
Press
MSL
hPa
Rain
since 9 am
mm
Dir
 
Spd
km/h
Gust
km/h
Spd
kts
Gust
kts
01/11:30pm 20.2 - - - - - - - - - 1014.3 1014.2 -
01/11:00pm 20.6 - - - - - - - - - 1014.2 - -
01/10:30pm 21.2 - - - - - - - - - 1014.0 1013.9 -
01/10:00pm 21.6 - - - - - - - - - 1013.9 - -
01/09:30pm 21.7 - - - - - - - - - 1013.9 1013.8 -
01/09:00pm 22.3 - - - - - - - - - 1013.6 1013.5 0.0
01/08:30pm 23.2 - - - - - - - - - 1013.2 1013.1 -
01/08:00pm 23.8 - - - - - - - - - 1012.8 - -
01/07:30pm 25.0 - - - - - - - - - 1012.3 1012.2 -
01/07:00pm 25.9 - - - - - - - - - 1012.0 - -
01/06:30pm 27.2 - - - - - - - - - 1011.9 1011.8 -
01/06:00pm 28.3 - - - - - - - - - 1011.8 1011.7 -
01/05:30pm 29.3 - - - - - - - - - 1011.5 1011.4 -
01/05:00pm 30.4 - - - - - - - - - 1011.2 - -
01/04:30pm 31.2 - - - - - - - - - 1011.0 1010.9 -
01/04:00pm 31.4 - - - - - - - - - 1011.1 - -
01/03:30pm 32.5 - - - - - - - - - 1011.3 1011.2 -
01/03:00pm 32.2 - - - - - - - - - 1011.6 1011.5 0.0
01/02:30pm 33.1 - - - - - - - - - 1011.9 1011.8 -
01/02:00pm 32.2 - - - - - - - - - 1012.2 - -
01/01:30pm 33.4 - - - - - - - - - 1012.7 1012.6 -
01/01:00pm 32.7 - - - - - - - - - 1013.2 - -
01/12:30pm 32.2 - - - - - - - - - 1013.7 1013.6 -
01/12:00pm 32.2 - - - - - - - - - 1014.1 1014.0 -
01/11:30am 31.6 - - - - - - - - - 1014.3 1014.2 -
01/11:00am 30.8 - - - - - - - - - 1014.9 - -
01/10:30am 30.0 - - - - - - - - - 1015.3 1015.2 -
01/10:00am 28.8 - - - - - - - - - 1015.6 - -
01/09:30am 28.4 - - - - - - - - - 1015.7 1015.6 -
01/09:00am 26.3 - - - - - - - - - 1015.6 1015.6 0.0
01/08:30am 24.8 - - - - - - - - - 1015.4 1015.4 -
01/08:00am 21.9 - - - - - - - - - 1015.2 - -
01/07:30am 19.0 - - - - - - - - - 1014.8 1014.8 -
01/07:00am 17.4 - - - - - - - - - 1014.5 - -
01/06:30am 17.4 - - - - - - - - - 1014.1 1014.1 -
01/06:00am 17.5 - - - - - - - - - 1014.0 1014.0 -
01/05:30am 17.9 - - - - - - - - - 1013.9 1013.9 -
01/05:00am 18.1 - - - - - - - - - 1013.8 - -
01/04:30am 18.3 - - - - - - - - - 1013.8 1013.8 -
01/04:00am 18.3 - - - - - - - - - 1013.8 - -
01/03:30am 18.3 - - - - - - - - - 1013.9 1013.9 -
01/03:00am 18.4 - - - - - - - - - 1013.9 1013.9 0.0
01/02:30am 18.3 - - - - - - - - - 1013.8 1013.8 -
01/02:00am 18.9 - - - - - - - - - 1013.8 - -
01/01:30am 18.8 - - - - - - - - - 1013.7 1013.7 -
01/01:00am 19.0 - - - - - - - - - 1014.0 - -
01/12:30am 19.2 - - - - - - - - - 1014.3 1014.3 -
01/12:00am 19.5 - - - - - - - - - 1014.3 1014.3 -
 
Date/Time
CST
Temp
°C
App
Temp
°C
Dew
Point
Rel
Hum
%
Delta-T
°C
Wind Press
QNH
hPa
Press
MSL
hPa
Rain
since 9 am
mm
Dir
 
Spd
km/h
Gust
km/h
Spd
kts
Gust
kts
31/11:30pm 19.6 - - - - - - - - - 1014.3 1014.3 -
31/11:00pm 19.9 - - - - - - - - - 1014.3 - -
31/10:30pm 20.6 - - - - - - - - - 1014.0 1014.0 -
31/10:00pm 21.0 - - - - - - - - - 1014.1 - -
31/09:30pm 21.7 - - - - - - - - - 1014.1 1014.1 -
31/09:00pm 22.3 - - - - - - - - - 1013.9 1013.9 0.0
31/08:30pm 23.1 - - - - - - - - - 1013.5 1013.5 -

Other Formats:

Comma delimited format used in spreadsheet applications
http://www.bom.gov.au/fwo/IDD60801/IDD60801.94109.axf

JavaScript Object Notation format (JSON) in row-major order
http://www.bom.gov.au/fwo/IDD60801/IDD60801.94109.json